Terminal Aerodrome Forecast
Issued by NWS

Home | Current Version | Previous Version | Text Only | Print | Product List | Glossary On
Versions: 1 2 3 4 5 6 7 8 9 10 11 12 13 14 15
719
FTPA31 PHFO 232342
TAFHOG
TAF
PHOG 232342Z 2400/2424 04024G32KT 5SM SHRA BR BKN020 OVC030
      TEMPO 2402/2404 2SM RA BR BKN009
     FM241400 07018G26KT 2SM SHRA BR BKN015 OVC035=

USA.gov is the U.S. government's official web portal to all federal, state and local government web resources and services.